Time;durP1;ratioP1;P1;durP2;ratioP2;P2;SDS_P1;SDS_P2;PMS_P1;PMS_P2;Temp;Humidity;BMP_temperature;BMP_pressure;BME280_temperature;BME280_humidity;BME280_pressure;Samples;Min_cycle;Max_cycle;Signal;HPM_P1;HPM_P2
2024/02/16 00:01:50;;;;;;;1.13;1.03;;;10.30;99.90;;;;;;4936436;29;20523;-84
2024/02/16 00:04:17;;;;;;;1.17;0.80;;;10.40;99.90;;;;;;4936487;29;20517;-84
2024/02/16 00:06:44;;;;;;;0.97;0.80;;;10.40;99.90;;;;;;4936806;29;20443;-84
2024/02/16 00:09:10;;;;;;;1.10;0.80;;;10.40;99.90;;;;;;4936417;29;20439;-84
2024/02/16 00:11:37;;;;;;;0.90;0.70;;;10.40;99.90;;;;;;4936387;29;20530;-84
2024/02/16 00:14:04;;;;;;;1.43;0.70;;;10.50;99.90;;;;;;4936776;29;20451;-84
2024/02/16 00:16:32;;;;;;;0.97;0.83;;;10.50;99.90;;;;;;4936385;29;20458;-84
2024/02/16 00:18:59;;;;;;;0.70;0.70;;;10.60;99.90;;;;;;4936416;29;20448;-84
2024/02/16 00:21:25;;;;;;;0.70;0.60;;;10.60;99.90;;;;;;4936493;29;20796;-84
2024/02/16 00:23:52;;;;;;;1.53;0.80;;;10.70;99.90;;;;;;4936409;29;20494;-84
2024/02/16 00:26:19;;;;;;;2.00;1.73;;;10.70;99.90;;;;;;4936281;29;20463;-84
2024/02/16 00:28:46;;;;;;;0.80;0.80;;;10.70;99.90;;;;;;4936321;29;20447;-84
2024/02/16 00:31:13;;;;;;;0.90;0.70;;;10.80;99.90;;;;;;4936327;29;20980;-84
2024/02/16 00:33:41;;;;;;;0.73;0.73;;;10.80;99.90;;;;;;4936351;29;20448;-84
2024/02/16 00:36:09;;;;;;;2.03;0.60;;;10.80;99.90;;;;;;4936100;29;20455;-84
2024/02/16 00:38:36;;;;;;;0.87;0.87;;;10.80;99.90;;;;;;4936274;29;20512;-84
2024/02/16 00:41:04;;;;;;;2.00;0.77;;;10.80;99.90;;;;;;4936393;29;20470;-84
2024/02/16 00:43:31;;;;;;;0.70;0.50;;;10.80;99.90;;;;;;4936223;29;20486;-84
2024/02/16 00:45:58;;;;;;;1.67;0.70;;;10.80;99.90;;;;;;4936398;29;20455;-84
2024/02/16 00:48:25;;;;;;;0.80;0.60;;;10.80;99.90;;;;;;4936345;29;20937;-84
2024/02/16 00:50:53;;;;;;;3.80;0.63;;;10.80;99.90;;;;;;4936405;29;20467;-84
2024/02/16 00:53:20;;;;;;;0.80;0.67;;;10.80;99.90;;;;;;4938783;29;20449;-84
2024/02/16 00:55:46;;;;;;;3.30;0.87;;;10.80;99.90;;;;;;4940367;29;20502;-84
2024/02/16 00:58:13;;;;;;;1.90;1.00;;;10.80;99.90;;;;;;4939707;29;20459;-84
2024/02/16 01:00:40;;;;;;;1.10;0.60;;;10.80;99.90;;;;;;4939717;29;20474;-84
2024/02/16 01:03:07;;;;;;;0.60;0.60;;;10.80;99.90;;;;;;4939445;29;20494;-84
2024/02/16 01:05:33;;;;;;;0.50;0.50;;;10.80;99.90;;;;;;4940665;29;20878;-84
2024/02/16 01:08:01;;;;;;;0.80;0.67;;;10.80;99.90;;;;;;4941933;29;20455;-84
2024/02/16 01:10:28;;;;;;;0.67;0.63;;;10.80;99.90;;;;;;4940364;29;20490;-84
2024/02/16 01:12:56;;;;;;;3.60;0.70;;;10.90;99.90;;;;;;4939952;29;20439;-84
2024/02/16 01:15:22;;;;;;;1.37;0.60;;;10.90;99.90;;;;;;4940543;29;20554;-84
2024/02/16 01:17:49;;;;;;;1.43;0.60;;;10.90;99.90;;;;;;4939917;29;20905;-84
2024/02/16 01:20:16;;;;;;;1.07;0.50;;;10.90;99.90;;;;;;4940717;29;20478;-84
2024/02/16 01:22:44;;;;;;;1.63;1.07;;;10.90;99.90;;;;;;4940355;29;20473;-84
2024/02/16 01:25:12;;;;;;;1.03;0.80;;;10.90;99.90;;;;;;4940490;29;20490;-85
2024/02/16 01:27:40;;;;;;;0.77;0.60;;;11.00;99.90;;;;;;4940507;29;20798;-84
2024/02/16 01:30:08;;;;;;;0.60;0.60;;;11.00;99.90;;;;;;4941443;29;20471;-84
2024/02/16 01:32:35;;;;;;;2.00;0.80;;;11.10;99.90;;;;;;4959468;28;20828;-84
2024/02/16 01:35:02;;;;;;;0.90;0.70;;;11.00;99.90;;;;;;4938955;29;20510;-84
2024/02/16 01:37:29;;;;;;;0.60;0.60;;;11.00;99.90;;;;;;4938707;29;20462;-84
2024/02/16 01:39:55;;;;;;;0.50;0.50;;;10.90;99.90;;;;;;4938853;29;20467;-84
2024/02/16 01:42:23;;;;;;;0.87;0.60;;;10.80;99.90;;;;;;4938932;29;20832;-84
2024/02/16 01:44:50;;;;;;;0.80;0.80;;;10.80;99.90;;;;;;4938382;29;20486;-84
2024/02/16 01:47:19;;;;;;;1.60;0.80;;;10.80;99.90;;;;;;4938604;29;20454;-84
2024/02/16 01:49:46;;;;;;;0.70;0.70;;;10.80;99.90;;;;;;4938662;29;20474;-84
2024/02/16 01:52:12;;;;;;;0.70;0.60;;;10.70;99.90;;;;;;4938390;29;20992;-84
2024/02/16 01:54:39;;;;;;;0.50;0.50;;;10.70;99.90;;;;;;4938613;29;20454;-84
2024/02/16 01:57:07;;;;;;;0.50;0.50;;;10.70;99.90;;;;;;4938550;29;20462;-84
2024/02/16 01:59:36;;;;;;;0.60;0.60;;;10.80;99.90;;;;;;4939111;29;20531;-84
2024/02/16 02:02:03;;;;;;;0.50;0.50;;;10.80;99.90;;;;;;4938541;29;20506;-84
2024/02/16 02:04:30;;;;;;;0.70;0.70;;;10.80;99.90;;;;;;4938608;29;20849;-84
2024/02/16 02:06:57;;;;;;;16.33;0.60;;;10.80;99.90;;;;;;4939621;29;20451;-84
2024/02/16 02:09:23;;;;;;;0.97;0.60;;;10.80;99.90;;;;;;4939036;29;20486;-84
2024/02/16 02:11:51;;;;;;;1.07;0.50;;;10.80;99.90;;;;;;4938487;29;20483;-84
2024/02/16 02:14:18;;;;;;;2.50;0.90;;;10.80;99.90;;;;;;4938160;29;20450;-84
2024/02/16 02:16:46;;;;;;;0.80;0.80;;;10.80;99.90;;;;;;4938164;29;20474;-84
2024/02/16 02:19:13;;;;;;;1.00;0.60;;;10.80;99.90;;;;;;4938239;29;20442;-84
2024/02/16 02:21:39;;;;;;;0.50;0.50;;;10.80;99.90;;;;;;4938265;29;20456;-84
2024/02/16 02:24:08;;;;;;;1.23;0.83;;;10.90;99.90;;;;;;4937891;29;20830;-84
2024/02/16 02:26:34;;;;;;;0.70;0.60;;;10.90;99.90;;;;;;4938187;29;20451;-84
2024/02/16 02:29:01;;;;;;;1.80;0.73;;;10.90;99.90;;;;;;4938171;29;20475;-84
2024/02/16 02:31:28;;;;;;;0.60;0.60;;;10.90;99.90;;;;;;4938443;29;20454;-84
2024/02/16 02:33:55;;;;;;;1.27;0.60;;;10.90;99.90;;;;;;4938058;29;20795;-84
2024/02/16 02:36:22;;;;;;;0.60;0.60;;;10.90;99.90;;;;;;4938060;29;20447;-84
2024/02/16 02:38:48;;;;;;;1.33;0.60;;;10.90;99.90;;;;;;4938340;29;20447;-84
2024/02/16 02:41:19;;;;;;;1.00;0.60;;;11.00;99.90;;;;;;4938108;29;20471;-84
2024/02/16 02:43:46;;;;;;;0.90;0.67;;;11.00;99.90;;;;;;4937875;29;20491;-84
2024/02/16 02:46:15;;;;;;;0.80;0.63;;;11.00;99.90;;;;;;4938031;29;20462;-84
2024/02/16 02:48:44;;;;;;;2.30;1.37;;;11.00;99.90;;;;;;4937527;29;20522;-84
2024/02/16 02:51:10;;;;;;;0.50;0.50;;;11.00;99.90;;;;;;4938179;29;20892;-84
2024/02/16 02:53:38;;;;;;;1.13;1.00;;;11.00;99.90;;;;;;4938751;29;20462;-84
2024/02/16 02:56:05;;;;;;;0.43;0.40;;;11.00;99.90;;;;;;4938797;29;20455;-84
2024/02/16 02:58:33;;;;;;;1.77;0.67;;;11.00;99.90;;;;;;4938811;29;20861;-84
2024/02/16 03:01:00;;;;;;;0.87;0.77;;;11.00;99.90;;;;;;4938537;29;20460;-84
2024/02/16 03:03:27;;;;;;;1.40;0.60;;;11.00;99.90;;;;;;4937547;29;20971;-84
2024/02/16 03:05:54;;;;;;;1.17;0.87;;;10.90;99.90;;;;;;4937799;29;20490;-84
2024/02/16 03:08:20;;;;;;;0.80;0.60;;;10.90;99.90;;;;;;4937581;29;20450;-84
2024/02/16 03:10:47;;;;;;;0.70;0.70;;;10.90;99.90;;;;;;4937206;29;20498;-84
2024/02/16 03:13:17;;;;;;;1.20;1.00;;;10.90;99.90;;;;;;4937040;29;20436;-84
2024/02/16 03:15:46;;;;;;;0.60;0.60;;;10.90;99.90;;;;;;4936970;29;20470;-84
2024/02/16 03:18:13;;;;;;;2.63;0.73;;;10.90;99.90;;;;;;4937454;29;20455;-84
2024/02/16 03:20:40;;;;;;;0.80;0.60;;;10.90;99.90;;;;;;4937619;29;20919;-84
2024/02/16 03:23:06;;;;;;;12.03;0.60;;;11.00;99.90;;;;;;4937417;29;20447;-84
2024/02/16 03:25:33;;;;;;;0.80;0.77;;;11.00;99.90;;;;;;4937181;29;20546;-84
2024/02/16 03:28:01;;;;;;;1.63;0.80;;;11.00;99.90;;;;;;4937232;29;20542;-84
2024/02/16 03:30:27;;;;;;;0.80;0.60;;;10.90;99.90;;;;;;4937861;29;20467;-84
2024/02/16 03:32:55;;;;;;;1.00;0.80;;;10.90;99.90;;;;;;4938265;29;20814;-84
2024/02/16 03:35:22;;;;;;;0.60;0.50;;;10.90;99.90;;;;;;4938363;29;20439;-84
2024/02/16 03:37:49;;;;;;;1.40;1.40;;;10.90;99.90;;;;;;4937115;29;20446;-83
2024/02/16 03:40:16;;;;;;;0.77;0.60;;;10.80;99.90;;;;;;4936941;29;20478;-84
2024/02/16 03:42:43;;;;;;;0.97;0.73;;;10.80;99.90;;;;;;4946753;29;20455;-83
2024/02/16 03:45:11;;;;;;;1.33;1.10;;;10.80;99.90;;;;;;4947606;29;20893;-84
2024/02/16 03:47:40;;;;;;;1.43;0.90;;;10.80;99.90;;;;;;4936730;29;20439;-84
2024/02/16 03:50:09;;;;;;;1.97;1.00;;;10.80;99.90;;;;;;4936449;29;20483;-84
2024/02/16 03:52:36;;;;;;;1.20;0.90;;;10.80;99.90;;;;;;4936536;29;20458;-84
2024/02/16 03:55:03;;;;;;;1.33;0.80;;;10.80;99.90;;;;;;4936415;29;20953;-84
2024/02/16 03:57:31;;;;;;;1.50;0.67;;;10.80;99.90;;;;;;4936637;29;20436;-84
2024/02/16 03:59:59;;;;;;;1.57;0.90;;;10.80;99.90;;;;;;4937004;29;21013;-84
2024/02/16 04:02:25;;;;;;;0.80;0.60;;;10.80;99.90;;;;;;4937590;29;21016;-84
2024/02/16 04:04:52;;;;;;;0.80;0.80;;;10.80;99.90;;;;;;4937595;29;20489;-84
2024/02/16 04:07:20;;;;;;;0.90;0.90;;;10.80;99.90;;;;;;4937008;29;20447;-84
2024/02/16 04:09:47;;;;;;;0.80;0.80;;;10.70;99.90;;;;;;4937192;29;20467;-84
2024/02/16 04:12:14;;;;;;;1.90;0.90;;;10.70;99.90;;;;;;4936870;29;20594;-84
2024/02/16 04:14:41;;;;;;;2.07;1.23;;;10.60;99.90;;;;;;4937303;29;20498;-84
2024/02/16 04:17:08;;;;;;;0.93;0.70;;;10.70;99.90;;;;;;4936829;29;20485;-84
2024/02/16 04:19:37;;;;;;;0.67;0.67;;;10.70;99.90;;;;;;4936993;29;20472;-84
2024/02/16 04:22:04;;;;;;;0.70;0.70;;;10.70;99.90;;;;;;4936603;29;20443;-84
2024/02/16 04:24:32;;;;;;;1.47;0.87;;;10.70;99.90;;;;;;4936398;29;20537;-84
2024/02/16 04:26:59;;;;;;;1.57;0.87;;;10.60;99.90;;;;;;4936708;29;20455;-84
2024/02/16 04:29:26;;;;;;;1.20;1.10;;;10.60;99.90;;;;;;4940453;29;20840;-84
2024/02/16 04:31:52;;;;;;;1.53;1.00;;;10.60;99.90;;;;;;4940566;29;20451;-84
2024/02/16 04:34:19;;;;;;;0.93;0.80;;;10.60;99.90;;;;;;4939860;29;20447;-84
2024/02/16 04:36:46;;;;;;;1.23;1.03;;;10.60;99.90;;;;;;4941025;29;20453;-84
2024/02/16 04:39:14;;;;;;;0.90;0.90;;;10.70;99.90;;;;;;4940918;29;20450;-84
2024/02/16 04:41:42;;;;;;;1.07;0.87;;;10.70;99.90;;;;;;4940630;29;20451;-84
2024/02/16 04:44:09;;;;;;;1.43;0.93;;;10.60;99.90;;;;;;4940596;29;20473;-84
2024/02/16 04:46:36;;;;;;;0.63;0.63;;;10.60;99.90;;;;;;4940383;29;20447;-84
2024/02/16 04:49:02;;;;;;;1.33;0.83;;;10.60;99.90;;;;;;4940005;29;20967;-84
2024/02/16 04:51:29;;;;;;;1.07;0.80;;;10.60;99.90;;;;;;4940024;29;20439;-84
2024/02/16 04:53:56;;;;;;;0.70;0.60;;;10.60;99.90;;;;;;4940284;29;20500;-84
2024/02/16 04:56:23;;;;;;;3.07;1.33;;;10.60;99.90;;;;;;4940306;29;20545;-84
2024/02/16 04:58:51;;;;;;;1.77;0.97;;;10.60;99.90;;;;;;4939950;29;20506;-84
2024/02/16 05:01:18;;;;;;;1.00;0.57;;;10.50;99.90;;;;;;4939997;29;20980;-84
2024/02/16 05:03:45;;;;;;;1.23;0.80;;;10.50;99.90;;;;;;4940156;29;20447;-84
2024/02/16 05:06:12;;;;;;;1.00;0.60;;;10.50;99.90;;;;;;4939948;29;20498;-84
2024/02/16 05:08:38;;;;;;;1.27;0.80;;;10.50;99.90;;;;;;4939872;29;20455;-84
2024/02/16 05:11:07;;;;;;;1.17;0.97;;;10.50;99.90;;;;;;4940016;29;20487;-84
2024/02/16 05:13:34;;;;;;;1.00;0.60;;;10.50;99.90;;;;;;4940680;29;20490;-84
2024/02/16 05:16:02;;;;;;;0.70;0.70;;;10.40;99.90;;;;;;4939851;29;20972;-84
2024/02/16 05:18:28;;;;;;;1.33;0.80;;;10.50;99.90;;;;;;4939969;29;20443;-84
2024/02/16 05:20:55;;;;;;;1.17;1.07;;;10.50;99.90;;;;;;4940391;29;20475;-84
2024/02/16 05:23:23;;;;;;;1.10;0.73;;;10.50;99.90;;;;;;4939921;29;20450;-84
2024/02/16 05:25:49;;;;;;;3.13;1.10;;;10.40;99.90;;;;;;4940133;29;20898;-84
2024/02/16 05:28:16;;;;;;;2.00;1.07;;;10.40;99.90;;;;;;4939679;29;20455;-84
2024/02/16 05:30:43;;;;;;;1.13;0.70;;;10.40;99.90;;;;;;4939626;29;20507;-84
2024/02/16 05:33:13;;;;;;;2.10;1.00;;;10.40;99.90;;;;;;4939440;29;20506;-84
2024/02/16 05:35:40;;;;;;;1.33;1.10;;;10.40;99.90;;;;;;4939092;29;20956;-84
2024/02/16 05:38:20;;;;;;;1.40;1.00;;;10.30;99.90;;;;;;4939058;29;20459;-84
2024/02/16 05:40:53;;;;;;;0.80;0.80;;;10.30;99.90;;;;;;4939220;29;20479;-84
2024/02/16 05:43:20;;;;;;;0.90;0.80;;;10.30;99.90;;;;;;4939508;29;20432;-84
2024/02/16 05:45:47;;;;;;;0.70;0.70;;;10.30;99.90;;;;;;4939772;29;20536;-84
2024/02/16 05:48:15;;;;;;;1.23;0.90;;;10.30;99.90;;;;;;4939316;29;20945;-84
2024/02/16 05:50:43;;;;;;;1.10;0.83;;;10.30;99.90;;;;;;4939702;29;20475;-84
2024/02/16 05:53:10;;;;;;;1.37;0.90;;;10.20;99.90;;;;;;4939838;29;20450;-84
2024/02/16 05:55:37;;;;;;;1.33;0.70;;;10.20;99.90;;;;;;4960607;28;20436;-83
2024/02/16 05:58:04;;;;;;;0.77;0.60;;;10.20;99.90;;;;;;4938407;29;20444;-84
2024/02/16 06:00:33;;;;;;;1.30;0.73;;;10.10;99.90;;;;;;4938579;29;20471;-84
2024/02/16 06:02:59;;;;;;;1.07;0.67;;;10.10;99.90;;;;;;4938315;29;20458;-84
2024/02/16 06:05:28;;;;;;;2.60;1.30;;;10.10;99.90;;;;;;4938285;29;20494;-84
2024/02/16 06:07:56;;;;;;;1.47;1.37;;;10.10;99.90;;;;;;4938325;29;20451;-84
2024/02/16 06:10:23;;;;;;;1.27;0.70;;;10.10;99.90;;;;;;4938178;29;20494;-84
2024/02/16 06:12:49;;;;;;;0.50;0.50;;;10.00;99.90;;;;;;4938138;29;20439;-84
2024/02/16 06:15:16;;;;;;;4.10;0.90;;;10.00;99.90;;;;;;4938134;29;20435;-84
2024/02/16 06:17:43;;;;;;;1.37;1.10;;;10.00;99.90;;;;;;4937912;29;20462;-84
2024/02/16 06:20:11;;;;;;;1.13;0.90;;;10.00;99.90;;;;;;4937884;29;20463;-84
2024/02/16 06:22:40;;;;;;;1.30;1.10;;;10.00;99.90;;;;;;4938280;29;20450;-84
2024/02/16 06:25:07;;;;;;;0.70;0.70;;;9.90;99.90;;;;;;4938053;29;20518;-84
2024/02/16 06:27:34;;;;;;;1.10;1.00;;;9.90;99.90;;;;;;4937824;29;20447;-84
2024/02/16 06:30:01;;;;;;;0.60;0.60;;;10.00;99.90;;;;;;4937898;29;20463;-84
2024/02/16 06:32:28;;;;;;;0.87;0.60;;;9.90;99.90;;;;;;4937818;29;20439;-84
2024/02/16 06:34:55;;;;;;;1.53;0.77;;;10.00;99.90;;;;;;4937984;29;20443;-84
2024/02/16 06:37:22;;;;;;;0.70;0.60;;;9.90;99.90;;;;;;4937965;29;20447;-84
2024/02/16 06:39:50;;;;;;;0.70;0.50;;;10.00;99.90;;;;;;4938882;29;20471;-84
2024/02/16 06:42:17;;;;;;;1.50;1.27;;;10.00;99.90;;;;;;4937685;29;20443;-84
2024/02/16 06:44:43;;;;;;;1.67;0.90;;;10.00;99.90;;;;;;4937844;29;20455;-84
2024/02/16 06:47:10;;;;;;;1.03;0.67;;;9.90;99.90;;;;;;4937527;29;20435;-84
2024/02/16 06:49:38;;;;;;;1.43;1.33;;;10.00;99.90;;;;;;4937293;29;20511;-84
2024/02/16 06:52:05;;;;;;;1.13;0.70;;;10.00;99.90;;;;;;4937681;29;20462;-84
2024/02/16 06:54:32;;;;;;;6.83;1.07;;;10.00;99.90;;;;;;4940206;29;20815;-84
2024/02/16 06:57:01;;;;;;;1.17;0.90;;;10.00;99.90;;;;;;4938969;29;20556;-84
2024/02/16 06:59:27;;;;;;;2.00;1.00;;;10.00;99.90;;;;;;4939627;29;20511;-84
2024/02/16 07:01:54;;;;;;;1.23;1.13;;;10.00;99.90;;;;;;4939458;29;20478;-84
2024/02/16 07:04:21;;;;;;;1.37;1.27;;;10.00;99.90;;;;;;4939676;29;20443;-84
2024/02/16 07:06:47;;;;;;;1.23;0.70;;;10.00;99.90;;;;;;4939145;29;20856;-84
2024/02/16 07:09:15;;;;;;;2.30;1.43;;;10.10;99.90;;;;;;4939362;29;20463;-84
2024/02/16 07:11:42;;;;;;;1.23;0.70;;;10.00;99.90;;;;;;4939047;29;20512;-85
2024/02/16 07:14:10;;;;;;;4.30;1.00;;;10.10;99.90;;;;;;4938904;29;20462;-84
2024/02/16 07:16:37;;;;;;;1.53;0.80;;;10.10;99.90;;;;;;4938848;29;20482;-84
2024/02/16 07:19:05;;;;;;;1.00;0.70;;;10.10;99.90;;;;;;4938834;29;20461;-84
2024/02/16 07:21:31;;;;;;;0.60;0.60;;;10.20;99.90;;;;;;4938766;29;20459;-84
2024/02/16 07:23:58;;;;;;;0.80;0.77;;;10.20;99.90;;;;;;4938589;29;20845;-83
2024/02/16 07:26:29;;;;;;;2.40;1.40;;;10.20;99.90;;;;;;4938658;29;20483;-83
2024/02/16 07:28:55;;;;;;;1.33;0.87;;;10.20;99.90;;;;;;4938894;29;20538;-84
2024/02/16 07:31:23;;;;;;;2.07;0.77;;;10.20;99.90;;;;;;4939467;29;20447;-84
2024/02/16 07:33:50;;;;;;;1.13;1.03;;;10.30;99.90;;;;;;4938496;29;20451;-84
2024/02/16 07:36:18;;;;;;;0.70;0.70;;;10.40;99.90;;;;;;4938465;29;20839;-85
2024/02/16 07:38:46;;;;;;;0.90;0.90;;;10.40;99.90;;;;;;4938512;29;20478;-86
2024/02/16 07:41:12;;;;;;;2.30;0.90;;;10.50;99.90;;;;;;4939484;29;20841;-81
2024/02/16 07:43:39;;;;;;;0.83;0.80;;;10.60;99.90;;;;;;4939422;29;20455;-81
2024/02/16 07:46:08;;;;;;;1.37;0.87;;;10.60;99.90;;;;;;4939327;29;20529;-81
2024/02/16 07:48:36;;;;;;;0.70;0.60;;;10.70;99.90;;;;;;4939420;29;20483;-81
2024/02/16 07:51:03;;;;;;;3.63;1.37;;;10.70;99.90;;;;;;4939627;29;20471;-81
2024/02/16 07:53:31;;;;;;;0.60;0.60;;;10.80;99.90;;;;;;4940581;29;20455;-81
2024/02/16 07:55:58;;;;;;;0.77;0.67;;;10.90;99.90;;;;;;4939975;29;20443;-81
2024/02/16 07:58:25;;;;;;;0.57;0.57;;;11.00;99.90;;;;;;4938701;29;20945;-81
2024/02/16 08:00:52;;;;;;;4.43;1.17;;;11.10;99.90;;;;;;4939735;29;20467;-81
2024/02/16 08:03:19;;;;;;;0.97;0.97;;;11.10;99.90;;;;;;4939751;29;20949;-81
2024/02/16 08:05:47;;;;;;;1.23;1.03;;;11.20;99.90;;;;;;4947266;29;20496;-81
2024/02/16 08:08:14;;;;;;;0.60;0.60;;;11.30;99.90;;;;;;4946572;29;20586;-81
2024/02/16 08:10:41;;;;;;;2.53;0.70;;;11.40;99.90;;;;;;4946402;29;20487;-81
2024/02/16 08:13:07;;;;;;;0.77;0.77;;;11.50;99.90;;;;;;4949212;29;20471;-82
2024/02/16 08:15:34;;;;;;;4.53;1.00;;;11.50;99.90;;;;;;4950077;29;20443;-82
2024/02/16 08:18:01;;;;;;;0.87;0.87;;;11.50;99.90;;;;;;4949358;29;20462;-81
2024/02/16 08:20:27;;;;;;;1.63;0.70;;;11.60;99.90;;;;;;4950299;29;20471;-81
2024/02/16 08:22:56;;;;;;;1.90;0.80;;;11.60;99.90;;;;;;4949497;29;20466;-81
2024/02/16 08:25:23;;;;;;;1.47;1.17;;;11.60;99.90;;;;;;4951568;29;20826;-81
2024/02/16 08:27:50;;;;;;;2.43;0.90;;;11.70;99.90;;;;;;4950736;29;20475;-81
2024/02/16 08:30:17;;;;;;;1.70;1.00;;;11.80;99.90;;;;;;4950904;29;20499;-81
2024/02/16 08:32:44;;;;;;;1.83;0.93;;;11.90;99.90;;;;;;4951137;29;20451;-81
2024/02/16 08:35:14;;;;;;;0.77;0.77;;;12.00;99.90;;;;;;4951272;29;20490;-81
2024/02/16 08:37:40;;;;;;;1.00;0.90;;;12.20;99.90;;;;;;4951819;29;20467;-81
2024/02/16 08:40:14;;;;;;;3.40;0.70;;;12.40;99.90;;;;;;4950565;29;20467;-82
2024/02/16 08:42:40;;;;;;;1.53;0.70;;;12.60;99.90;;;;;;4951292;29;20462;-82
2024/02/16 08:45:08;;;;;;;1.83;1.20;;;12.70;99.90;;;;;;4951873;29;20450;-82
2024/02/16 08:47:35;;;;;;;2.10;0.90;;;12.90;99.90;;;;;;4951002;29;20496;-81
2024/02/16 08:50:02;;;;;;;1.17;1.00;;;12.90;99.90;;;;;;4950211;29;21019;-81
2024/02/16 08:52:29;;;;;;;1.10;0.80;;;13.10;99.90;;;;;;4950219;29;20510;-82
2024/02/16 08:54:56;;;;;;;1.77;0.80;;;13.20;99.90;;;;;;4949240;29;20463;-82
2024/02/16 08:57:24;;;;;;;0.80;0.70;;;13.40;99.90;;;;;;4949505;29;20455;-82
2024/02/16 08:59:50;;;;;;;1.60;0.97;;;13.50;99.90;;;;;;4951134;29;20475;-81
2024/02/16 09:02:17;;;;;;;2.00;0.73;;;13.50;99.90;;;;;;4953558;29;20446;-81
2024/02/16 09:04:44;;;;;;;1.33;0.80;;;13.60;99.90;;;;;;4968392;29;20454;-82
2024/02/16 09:07:12;;;;;;;0.80;0.73;;;13.80;99.90;;;;;;4962597;29;20478;-87
2024/02/16 09:09:40;;;;;;;0.87;0.80;;;14.30;99.90;;;;;;4959479;29;20546;-87
2024/02/16 09:12:11;;;;;;;9.70;0.70;;;14.70;99.90;;;;;;4957050;29;20478;-86
2024/02/16 09:14:41;;;;;;;0.70;0.70;;;15.20;99.90;;;;;;4960293;28;20458;-88
2024/02/16 09:17:08;;;;;;;1.27;0.80;;;15.20;99.90;;;;;;4960525;28;20446;-86
2024/02/16 09:19:34;;;;;;;1.17;0.83;;;15.00;99.90;;;;;;4959823;29;21034;-86
2024/02/16 09:22:03;;;;;;;2.60;0.70;;;15.00;99.90;;;;;;4959993;29;20447;-81
2024/02/16 09:24:30;;;;;;;0.80;0.50;;;15.30;99.90;;;;;;4959415;28;20936;-81
2024/02/16 09:26:57;;;;;;;1.43;0.70;;;15.50;99.90;;;;;;4959031;28;20548;-81
2024/02/16 09:29:23;;;;;;;0.80;0.80;;;16.00;99.90;;;;;;4959496;29;20466;-81
2024/02/16 09:31:51;;;;;;;0.87;0.63;;;16.90;99.90;;;;;;4959287;29;20434;-81
2024/02/16 09:34:18;;;;;;;0.70;0.70;;;17.50;99.90;;;;;;4958891;29;20542;-81
2024/02/16 09:36:45;;;;;;;2.43;0.80;;;17.70;99.90;;;;;;4959798;29;20910;-81
2024/02/16 09:39:11;;;;;;;1.90;0.70;;;17.40;99.90;;;;;;4960469;29;20457;-81
2024/02/16 09:41:43;;;;;;;4.87;0.80;;;17.10;99.90;;;;;;4958477;29;20497;-81
2024/02/16 09:44:10;;;;;;;1.23;0.60;;;16.90;99.90;;;;;;4959570;29;20434;-81
2024/02/16 09:46:36;;;;;;;6.03;0.70;;;16.70;99.90;;;;;;4960390;29;20532;-81
2024/02/16 09:49:05;;;;;;;0.93;0.70;;;16.70;99.90;;;;;;4960788;29;20457;-81
2024/02/16 09:51:32;;;;;;;0.53;0.53;;;16.60;99.90;;;;;;4961047;29;20454;-81
2024/02/16 09:54:00;;;;;;;0.80;0.63;;;16.80;99.90;;;;;;4960467;29;20932;-81
2024/02/16 09:56:27;;;;;;;1.53;0.80;;;16.90;99.90;;;;;;4959957;28;20450;-81
2024/02/16 09:58:54;;;;;;;0.90;0.67;;;17.10;99.90;;;;;;4960677;29;20975;-81
2024/02/16 10:01:22;;;;;;;0.80;0.80;;;17.40;99.90;;;;;;4960526;29;20450;-81
2024/02/16 10:03:49;;;;;;;2.23;0.70;;;17.70;99.90;;;;;;4961184;29;20453;-81
2024/02/16 10:06:20;;;;;;;1.67;0.80;;;18.10;99.90;;;;;;4963961;29;20889;-81
2024/02/16 10:08:51;;;;;;;0.83;0.53;;;18.30;99.90;;;;;;4966909;29;20443;-81
2024/02/16 10:11:19;;;;;;;1.03;0.83;;;18.20;99.90;;;;;;4965032;29;20486;-81
2024/02/16 10:13:56;;;;;;;0.60;0.60;;;18.10;99.90;;;;;;4964666;28;20447;-81
2024/02/16 10:16:23;;;;;;;0.60;0.60;;;18.00;99.90;;;;;;4969346;29;20849;-81
2024/02/16 10:18:50;;;;;;;2.20;1.00;;;17.60;99.90;;;;;;4971241;28;20442;-81
2024/02/16 10:21:27;;;;;;;0.80;0.70;;;17.40;99.90;;;;;;4957322;29;20470;-81
2024/02/16 10:24:04;;;;;;;1.40;0.70;;;17.30;99.90;;;;;;4957491;29;20434;-81
2024/02/16 10:26:31;;;;;;;1.63;0.50;;;17.10;99.90;;;;;;4957141;29;20470;-84
2024/02/16 10:28:58;;;;;;;1.07;0.77;;;17.00;99.90;;;;;;4957455;29;20439;-81
2024/02/16 10:31:30;;;;;;;2.10;1.17;;;16.90;99.90;;;;;;4957126;29;20529;-80
2024/02/16 10:33:59;;;;;;;0.90;0.70;;;16.80;99.90;;;;;;4959253;29;20439;-81
2024/02/16 10:36:28;;;;;;;3.10;0.70;;;16.80;99.90;;;;;;4957372;29;20446;-81
2024/02/16 10:38:56;;;;;;;0.70;0.70;;;16.70;99.90;;;;;;4957897;29;20447;-81
2024/02/16 10:41:27;;;;;;;0.97;0.80;;;16.80;99.90;;;;;;4957692;28;20450;-81
2024/02/16 10:43:55;;;;;;;0.90;0.80;;;16.60;99.90;;;;;;4957682;28;20431;-81
2024/02/16 10:46:22;;;;;;;1.53;0.70;;;16.50;99.90;;;;;;4957697;29;20526;-81
2024/02/16 10:48:49;;;;;;;1.90;0.67;;;16.40;99.90;;;;;;4960556;29;20537;-81
2024/02/16 10:51:20;;;;;;;1.40;1.00;;;16.30;99.90;;;;;;4962981;29;20464;-80
2024/02/16 10:53:51;;;;;;;0.90;0.70;;;16.20;99.90;;;;;;4963849;29;20427;-81
2024/02/16 10:56:17;;;;;;;0.77;0.73;;;16.20;99.90;;;;;;4960463;29;20427;-82
2024/02/16 10:58:48;;;;;;;4.00;1.20;;;16.00;99.90;;;;;;4960823;29;20461;-81
2024/02/16 11:01:16;;;;;;;1.10;0.90;;;16.00;99.90;;;;;;4961894;29;20548;-81
2024/02/16 11:03:43;;;;;;;1.03;0.90;;;16.00;99.90;;;;;;4962300;29;20442;-81
2024/02/16 11:06:16;;;;;;;0.67;0.67;;;16.00;99.90;;;;;;4961087;29;20813;-81
2024/02/16 11:08:43;;;;;;;4.17;0.90;;;16.00;99.90;;;;;;4958377;29;20434;-81
2024/02/16 11:11:12;;;;;;;0.80;0.80;;;16.00;99.90;;;;;;4957994;29;20501;-81
2024/02/16 11:13:40;;;;;;;0.90;0.70;;;16.00;99.90;;;;;;4957502;29;20451;-81
2024/02/16 11:16:08;;;;;;;0.93;0.90;;;16.00;99.90;;;;;;4957843;29;20434;-81
2024/02/16 11:18:40;;;;;;;1.13;0.80;;;16.00;99.90;;;;;;4957253;29;20454;-81
2024/02/16 11:21:07;;;;;;;0.80;0.70;;;16.00;99.90;;;;;;4957345;29;20463;-81
2024/02/16 11:23:37;;;;;;;4.10;1.10;;;16.10;99.90;;;;;;4957121;29;20450;-81
2024/02/16 11:26:06;;;;;;;0.60;0.60;;;16.30;99.90;;;;;;4958314;29;20831;-81
2024/02/16 11:28:35;;;;;;;2.60;0.80;;;16.40;99.90;;;;;;4963892;29;20454;-81
2024/02/16 11:31:03;;;;;;;1.00;0.80;;;16.40;99.90;;;;;;4964791;29;20469;-81
2024/02/16 11:33:30;;;;;;;1.50;0.60;;;16.50;99.90;;;;;;4961099;29;20438;-81
2024/02/16 11:35:58;;;;;;;1.07;0.93;;;16.90;99.90;;;;;;4960942;28;20457;-81
2024/02/16 11:38:24;;;;;;;0.63;0.63;;;17.20;99.90;;;;;;4960063;29;20446;-81
2024/02/16 11:40:56;;;;;;;2.40;1.07;;;17.50;99.90;;;;;;4956745;29;20544;-81
2024/02/16 11:43:23;;;;;;;0.90;0.80;;;17.70;99.90;;;;;;4957339;28;20450;-81
2024/02/16 11:45:51;;;;;;;0.80;0.70;;;17.90;99.90;;;;;;4957471;29;20456;-81
2024/02/16 11:48:21;;;;;;;0.80;0.60;;;18.10;99.90;;;;;;4956809;29;20490;-81
2024/02/16 11:50:48;;;;;;;1.20;0.80;;;18.20;99.90;;;;;;4956779;28;20462;-81
2024/02/16 11:53:20;;;;;;;0.90;0.60;;;18.10;99.90;;;;;;4956709;29;20454;-81
2024/02/16 11:55:48;;;;;;;0.60;0.60;;;18.20;99.90;;;;;;4956532;28;20485;-81
2024/02/16 11:58:17;;;;;;;1.20;0.80;;;18.20;99.90;;;;;;4956429;29;20446;-81
2024/02/16 12:00:43;;;;;;;1.40;0.70;;;18.20;99.90;;;;;;4956470;28;20474;-81
2024/02/16 12:03:11;;;;;;;0.90;0.60;;;18.20;99.90;;;;;;4956483;29;20947;-81
2024/02/16 12:05:38;;;;;;;0.60;0.60;;;18.30;99.90;;;;;;4958213;29;20446;-81
2024/02/16 12:08:07;;;;;;;0.80;0.80;;;18.30;99.90;;;;;;4965206;29;20545;-81
2024/02/16 12:10:34;;;;;;;0.90;0.80;;;18.30;99.90;;;;;;4958073;28;20482;-81
2024/02/16 12:13:01;;;;;;;0.80;0.70;;;18.40;99.90;;;;;;4957816;29;20450;-81
2024/02/16 12:15:27;;;;;;;2.73;0.70;;;18.50;99.90;;;;;;4957397;29;20439;-81
2024/02/16 12:18:01;;;;;;;0.90;0.70;;;18.50;99.90;;;;;;4960483;29;20449;-81
2024/02/16 12:20:31;;;;;;;0.50;0.50;;;18.60;99.90;;;;;;4961329;29;20474;-81
2024/02/16 12:22:59;;;;;;;1.60;0.53;;;18.60;99.90;;;;;;4958303;29;20485;-81
2024/02/16 12:25:25;;;;;;;0.60;0.60;;;18.60;99.90;;;;;;4958106;29;20450;-81
2024/02/16 12:27:52;;;;;;;0.63;0.63;;;18.60;99.90;;;;;;4958056;29;20493;-81
2024/02/16 12:30:19;;;;;;;0.73;0.70;;;18.50;99.90;;;;;;4971155;29;20991;-81
2024/02/16 12:32:45;;;;;;;1.43;0.70;;;18.50;99.90;;;;;;4956713;28;20504;-81
2024/02/16 12:35:12;;;;;;;0.60;0.60;;;18.40;99.90;;;;;;4956003;29;20462;-81
2024/02/16 12:37:40;;;;;;;3.10;0.80;;;18.30;99.90;;;;;;4956640;29;20446;-81
2024/02/16 12:40:08;;;;;;;1.57;0.80;;;18.10;99.90;;;;;;4958164;29;20466;-81
2024/02/16 12:42:35;;;;;;;0.80;0.80;;;18.10;99.90;;;;;;4957951;28;20450;-81
2024/02/16 12:45:02;;;;;;;1.20;1.10;;;17.80;99.90;;;;;;4957403;29;20822;-81
2024/02/16 12:47:28;;;;;;;1.10;1.00;;;17.80;99.90;;;;;;4957705;28;20478;-81
2024/02/16 12:49:57;;;;;;;1.00;0.80;;;17.80;99.90;;;;;;4960074;29;20473;-81